createdAt,value
2022-12-01T00:02:48.397Z,18.7
2022-12-01T00:07:43.321Z,18.6
2022-12-01T00:12:38.079Z,18.5
2022-12-01T00:17:32.893Z,18.5
2022-12-01T00:22:27.805Z,18.5
2022-12-01T00:27:21.854Z,18.5
2022-12-01T00:32:16.236Z,18.4
2022-12-01T00:37:10.605Z,18.4
2022-12-01T00:42:06.400Z,18.3
2022-12-01T00:46:59.288Z,18.3
2022-12-01T00:51:53.964Z,18.4
2022-12-01T00:56:48.773Z,18.3
2022-12-01T01:01:43.327Z,18.2
2022-12-01T01:06:38.038Z,18.3
2022-12-01T01:11:32.929Z,18.2
2022-12-01T01:16:27.820Z,18.1
2022-12-01T01:21:22.829Z,17.9
2022-12-01T01:26:17.603Z,18
2022-12-01T01:31:12.550Z,17.8
2022-12-01T01:36:07.171Z,17.7
2022-12-01T01:41:01.723Z,17.9
2022-12-01T01:45:56.298Z,18
2022-12-01T01:50:50.880Z,17.9
2022-12-01T01:55:45.687Z,17.8
2022-12-01T02:00:40.280Z,17.8
2022-12-01T02:05:34.969Z,17.9
2022-12-01T02:10:29.712Z,17.8
2022-12-01T02:15:24.444Z,17.8
2022-12-01T02:20:19.022Z,17.8
2022-12-01T02:25:13.934Z,17.8
2022-12-01T02:30:08.664Z,17.7
2022-12-01T02:35:03.377Z,17.7
2022-12-01T02:39:58.076Z,17.7
2022-12-01T02:44:52.883Z,17.7
2022-12-01T02:49:47.987Z,17.7
2022-12-01T02:54:41.961Z,17.6
2022-12-01T02:59:36.509Z,17.6
2022-12-01T03:04:31.249Z,17.7
2022-12-01T03:09:26.046Z,17.7
2022-12-01T03:14:20.481Z,17.6
2022-12-01T03:19:15.325Z,17.6
2022-12-01T03:24:09.461Z,17.7
2022-12-01T03:29:03.929Z,17.7
2022-12-01T03:33:58.425Z,17.7
2022-12-01T03:38:53.459Z,17.7
2022-12-01T03:43:47.653Z,17.5
2022-12-01T03:48:42.127Z,17.5
2022-12-01T03:53:37.043Z,17.6
2022-12-01T03:58:31.541Z,17.5
2022-12-01T04:03:26.119Z,17.4
2022-12-01T04:08:20.840Z,17.6
2022-12-01T04:13:15.610Z,17.5
2022-12-01T04:18:10.169Z,17.6
2022-12-01T04:23:05.199Z,17.4
2022-12-01T04:27:59.850Z,17.5
2022-12-01T04:32:54.457Z,17.5
2022-12-01T04:37:49.346Z,17.5
2022-12-01T04:42:44.077Z,17.5
2022-12-01T04:47:38.670Z,17.4
2022-12-01T04:52:35.345Z,17.3
2022-12-01T04:57:27.954Z,17.3
2022-12-01T05:02:22.809Z,17.3
2022-12-01T05:07:16.955Z,17.3
2022-12-01T05:12:11.743Z,17.3
2022-12-01T05:17:06.453Z,17.5
2022-12-01T05:22:01.186Z,17.7
2022-12-01T05:26:56.352Z,18.2
2022-12-01T05:31:51.459Z,18.4
2022-12-01T05:36:46.496Z,18.6
2022-12-01T05:41:41.813Z,19
2022-12-01T05:46:37.117Z,19.2
2022-12-01T05:51:32.475Z,19.6
2022-12-01T05:56:27.005Z,20.2
2022-12-01T06:01:21.657Z,20.6
2022-12-01T06:06:17.166Z,20.9
2022-12-01T06:11:11.617Z,21.3
2022-12-01T06:16:06.567Z,21.3
2022-12-01T06:21:01.213Z,21.4
2022-12-01T06:25:56.015Z,21.8
2022-12-01T06:30:50.874Z,21.9
2022-12-01T06:35:46.006Z,22
2022-12-01T06:40:40.257Z,21
2022-12-01T06:45:34.441Z,20.2
2022-12-01T06:50:28.627Z,19.8
2022-12-01T06:55:23.091Z,19.7
2022-12-01T07:00:17.319Z,19.4
2022-12-01T07:05:11.976Z,19.3
2022-12-01T07:10:06.116Z,19.1
2022-12-01T07:15:00.988Z,19.1
2022-12-01T07:19:55.317Z,19
2022-12-01T07:24:49.814Z,18.8
2022-12-01T07:29:44.517Z,18.6
2022-12-01T07:34:39.427Z,18.8
2022-12-01T07:39:34.032Z,19
2022-12-01T07:44:28.851Z,19.2
2022-12-01T07:49:23.612Z,19.2
2022-12-01T07:54:17.825Z,19.2
2022-12-01T07:59:12.821Z,19.2
2022-12-01T08:04:07.672Z,19.2
2022-12-01T08:09:02.401Z,19.2
2022-12-01T08:13:56.423Z,19.2
2022-12-01T08:18:50.946Z,19.1
2022-12-01T08:23:45.308Z,19.1
2022-12-01T08:28:39.497Z,19
2022-12-01T08:33:34.397Z,18.9
2022-12-01T08:38:28.852Z,18.9
2022-12-01T08:43:41.798Z,18.8
2022-12-01T08:48:17.913Z,18.8
2022-12-01T08:53:12.536Z,18.7
2022-12-01T08:58:07.151Z,18.8
2022-12-01T09:03:01.876Z,18.6
2022-12-01T09:07:56.805Z,18.6
2022-12-01T09:12:51.412Z,18.6
2022-12-01T09:17:46.149Z,18.6
2022-12-01T09:22:40.694Z,18.5
2022-12-01T09:27:35.539Z,18.5
2022-12-01T09:32:30.328Z,18.3
2022-12-01T09:37:24.932Z,18.3
2022-12-01T09:42:18.832Z,18.3
2022-12-01T09:47:13.828Z,18.3
2022-12-01T09:52:08.348Z,18.3
2022-12-01T09:57:03.043Z,18.2
2022-12-01T10:01:57.613Z,18.1
2022-12-01T10:06:52.042Z,18
2022-12-01T10:11:46.610Z,17.9
2022-12-01T10:16:40.924Z,18
2022-12-01T10:21:35.538Z,17.8
2022-12-01T10:26:30.185Z,17.8
2022-12-01T10:31:25.081Z,17.7
2022-12-01T10:36:19.623Z,17.8
2022-12-01T10:41:14.084Z,17.7
2022-12-01T10:46:08.904Z,17.6
2022-12-01T10:51:03.546Z,17.6
2022-12-01T10:55:58.051Z,17.6
2022-12-01T11:01:00.817Z,17.5
2022-12-01T11:05:47.541Z,17.5
2022-12-01T11:10:42.170Z,17.5
2022-12-01T11:15:37.216Z,17.5
2022-12-01T11:20:31.675Z,17.4
2022-12-01T11:25:26.433Z,17.4
2022-12-01T11:30:21.258Z,17.5
2022-12-01T11:35:15.905Z,17.3
2022-12-01T11:40:10.513Z,17.3
2022-12-01T11:45:05.228Z,17.2
2022-12-01T11:49:59.747Z,17.3
2022-12-01T11:54:54.538Z,17.2
2022-12-01T11:59:49.438Z,17.2
2022-12-01T12:04:43.693Z,17.1
2022-12-01T12:09:43.509Z,17.1
2022-12-01T12:14:32.986Z,16.9
2022-12-01T12:19:33.579Z,16.8
2022-12-01T12:24:22.075Z,16.8
2022-12-01T12:29:16.768Z,16.8
2022-12-01T12:34:11.380Z,16.8
2022-12-01T12:39:06.104Z,16.7
2022-12-01T12:44:00.652Z,16.7
2022-12-01T12:49:22.799Z,16.7
2022-12-01T12:53:50.448Z,16.8
2022-12-01T12:58:45.140Z,16.9
2022-12-01T13:03:40.243Z,17.2
2022-12-01T13:08:35.160Z,17.3
2022-12-01T13:13:30.188Z,17.5
2022-12-01T13:18:25.232Z,17.8
2022-12-01T13:23:20.295Z,18.3
2022-12-01T13:28:15.484Z,18.7
2022-12-01T13:33:10.696Z,19
2022-12-01T13:38:05.625Z,19.3
2022-12-01T13:43:03.157Z,19.6
2022-12-01T13:47:55.633Z,19.8
2022-12-01T13:52:50.557Z,19.8
2022-12-01T13:57:45.004Z,19.9
2022-12-01T14:02:40.082Z,20
2022-12-01T14:07:34.579Z,19.9
2022-12-01T14:12:28.584Z,20
2022-12-01T14:17:23.088Z,20
2022-12-01T14:22:17.056Z,19.9
2022-12-01T14:27:12.267Z,20
2022-12-01T14:32:06.833Z,19.9
2022-12-01T14:37:01.615Z,19.9
2022-12-01T14:41:56.476Z,19.8
2022-12-01T14:46:50.529Z,19.8
2022-12-01T14:51:45.288Z,19.7
2022-12-01T14:56:39.264Z,19.6
2022-12-01T15:01:33.881Z,19.6
2022-12-01T15:06:28.598Z,19.4
2022-12-01T15:11:23.386Z,19.4
2022-12-01T15:16:17.980Z,19.3
2022-12-01T15:21:12.696Z,19.3
2022-12-01T15:26:07.598Z,19.1
2022-12-01T15:31:02.512Z,19
2022-12-01T15:35:57.060Z,19.1
2022-12-01T15:41:20.956Z,19
2022-12-01T15:45:46.780Z,19.1
2022-12-01T15:50:46.098Z,19.3
2022-12-01T15:55:35.943Z,19.3
2022-12-01T16:00:30.178Z,19.6
2022-12-01T16:05:24.981Z,19.8
2022-12-01T16:10:20.063Z,20
2022-12-01T16:15:14.206Z,20.2
2022-12-01T16:20:09.367Z,20.5
2022-12-01T16:25:04.307Z,20.7
2022-12-01T16:29:59.380Z,20.9
2022-12-01T16:34:54.286Z,20.9
2022-12-01T16:39:49.097Z,21.1
2022-12-01T16:44:43.633Z,21
2022-12-01T16:49:37.957Z,21.1
2022-12-01T16:54:32.635Z,21
2022-12-01T16:59:27.393Z,21
2022-12-01T17:04:21.835Z,20.9
2022-12-01T17:09:16.497Z,20.9
2022-12-01T17:14:11.258Z,20.9
2022-12-01T17:19:05.880Z,20.8
2022-12-01T17:24:00.496Z,20.8
2022-12-01T17:28:55.098Z,20.7
2022-12-01T17:33:49.931Z,20.6
2022-12-01T17:38:44.427Z,20.5
2022-12-01T17:43:39.273Z,20.3
2022-12-01T17:48:34.049Z,20.3
2022-12-01T17:53:28.835Z,20.2
2022-12-01T17:58:23.765Z,20.2
2022-12-01T18:08:12.929Z,20
2022-12-01T18:13:07.676Z,20
2022-12-01T18:18:02.724Z,20
2022-12-01T18:22:57.474Z,20.1
2022-12-01T18:27:52.369Z,20.1
2022-12-01T18:32:47.223Z,20.2
2022-12-01T18:37:42.113Z,20.4
2022-12-01T18:42:36.909Z,20.6
2022-12-01T18:47:32.101Z,20.7
2022-12-01T18:52:26.951Z,20.9
2022-12-01T18:57:21.749Z,21
2022-12-01T19:02:16.783Z,21
2022-12-01T19:07:11.006Z,20.9
2022-12-01T19:12:06.023Z,20.9
2022-12-01T19:17:01.071Z,21
2022-12-01T19:21:55.523Z,21
2022-12-01T19:26:50.612Z,20.9
2022-12-01T19:31:45.530Z,20.8
2022-12-01T19:36:39.410Z,20.8
2022-12-01T19:41:34.042Z,20.8
2022-12-01T19:46:28.998Z,20.9
2022-12-01T19:51:23.589Z,20.8
2022-12-01T19:56:18.588Z,20.8
2022-12-01T20:01:13.846Z,20.7
2022-12-01T20:06:08.562Z,20.7
2022-12-01T20:11:03.407Z,20.6
2022-12-01T20:15:58.256Z,20.7
2022-12-01T20:20:53.074Z,20.6
2022-12-01T20:25:47.805Z,20.5
2022-12-01T20:30:42.787Z,20.4
2022-12-01T20:35:37.513Z,20.4
2022-12-01T20:40:32.190Z,20.4
2022-12-01T20:45:27.204Z,20.3
2022-12-01T20:50:21.748Z,20.2
2022-12-01T20:55:15.790Z,20.1
2022-12-01T21:00:10.572Z,20.2
2022-12-01T21:05:05.216Z,20
2022-12-01T21:09:59.966Z,19.9
2022-12-01T21:14:54.502Z,19.9
2022-12-01T21:19:49.099Z,19.8
2022-12-01T21:24:44.184Z,19.8
2022-12-01T21:29:38.538Z,19.8
2022-12-01T21:34:33.202Z,19.6
2022-12-01T21:39:27.242Z,19.7
2022-12-01T21:44:21.904Z,19.6
2022-12-01T21:49:16.577Z,19.6
2022-12-01T21:54:11.470Z,19.6
2022-12-01T21:59:06.291Z,19.5
2022-12-01T22:04:02.559Z,19.3
2022-12-01T22:08:56.261Z,19.4
2022-12-01T22:13:51.021Z,19.3
2022-12-01T22:18:45.728Z,19.3
2022-12-01T22:23:40.657Z,19.2
2022-12-01T22:28:35.603Z,19.1
2022-12-01T22:33:30.490Z,19.1
2022-12-01T22:38:25.342Z,19
2022-12-01T22:43:20.151Z,19
2022-12-01T22:48:14.690Z,18.9
2022-12-01T22:53:09.368Z,18.8
2022-12-01T22:58:04.076Z,18.9
2022-12-01T23:02:58.857Z,18.8
2022-12-01T23:07:53.472Z,18.8
2022-12-01T23:12:48.082Z,18.7
2022-12-01T23:17:42.813Z,18.7
2022-12-01T23:22:37.511Z,18.7
2022-12-01T23:27:32.050Z,18.6
2022-12-01T23:32:26.161Z,18.7
2022-12-01T23:37:21.044Z,18.6
2022-12-01T23:42:15.665Z,18.6
2022-12-01T23:47:10.408Z,18.6
2022-12-01T23:52:05.209Z,18.5
2022-12-01T23:57:00.193Z,18.5
